sensor_id;sensor_type;location;lat;lon;timestamp;P1;durP1;ratioP1;P2;durP2;ratioP2
21754;SDS011;11039;50.028;19.938;2022-08-07T00:00:39;5.90;;;3.72;;
21754;SDS011;11039;50.028;19.938;2022-08-07T00:03:06;5.07;;;3.80;;
21754;SDS011;11039;50.028;19.938;2022-08-07T00:05:33;5.18;;;4.00;;
21754;SDS011;11039;50.028;19.938;2022-08-07T00:07:59;5.20;;;4.43;;
21754;SDS011;11039;50.028;19.938;2022-08-07T00:10:25;5.05;;;4.30;;
21754;SDS011;11039;50.028;19.938;2022-08-07T00:12:51;6.25;;;5.25;;
21754;SDS011;11039;50.028;19.938;2022-08-07T00:15:17;6.53;;;5.10;;
21754;SDS011;11039;50.028;19.938;2022-08-07T00:17:43;5.13;;;4.63;;
21754;SDS011;11039;50.028;19.938;2022-08-07T00:20:09;7.28;;;5.05;;
21754;SDS011;11039;50.028;19.938;2022-08-07T00:22:35;5.63;;;5.00;;
21754;SDS011;11039;50.028;19.938;2022-08-07T00:25:04;5.90;;;5.32;;
21754;SDS011;11039;50.028;19.938;2022-08-07T00:27:30;6.90;;;4.78;;
21754;SDS011;11039;50.028;19.938;2022-08-07T00:29:56;6.30;;;4.97;;
21754;SDS011;11039;50.028;19.938;2022-08-07T00:32:22;5.78;;;5.20;;
21754;SDS011;11039;50.028;19.938;2022-08-07T00:34:48;6.15;;;4.97;;
21754;SDS011;11039;50.028;19.938;2022-08-07T00:37:15;5.30;;;4.80;;
21754;SDS011;11039;50.028;19.938;2022-08-07T00:39:41;6.53;;;4.85;;
21754;SDS011;11039;50.028;19.938;2022-08-07T00:42:07;5.53;;;4.80;;
21754;SDS011;11039;50.028;19.938;2022-08-07T00:44:33;4.80;;;4.30;;
21754;SDS011;11039;50.028;19.938;2022-08-07T00:47:00;5.55;;;4.50;;
21754;SDS011;11039;50.028;19.938;2022-08-07T00:49:26;4.60;;;4.20;;
21754;SDS011;11039;50.028;19.938;2022-08-07T00:51:52;4.45;;;3.92;;
21754;SDS011;11039;50.028;19.938;2022-08-07T00:54:18;4.93;;;4.28;;
21754;SDS011;11039;50.028;19.938;2022-08-07T00:56:44;5.45;;;3.80;;
21754;SDS011;11039;50.028;19.938;2022-08-07T00:59:10;4.93;;;3.95;;
21754;SDS011;11039;50.028;19.938;2022-08-07T01:01:37;4.93;;;4.43;;
21754;SDS011;11039;50.028;19.938;2022-08-07T01:04:04;5.00;;;4.50;;
21754;SDS011;11039;50.028;19.938;2022-08-07T01:06:30;4.93;;;4.43;;
21754;SDS011;11039;50.028;19.938;2022-08-07T01:08:57;5.05;;;4.53;;
21754;SDS011;11039;50.028;19.938;2022-08-07T01:11:24;4.97;;;4.35;;
21754;SDS011;11039;50.028;19.938;2022-08-07T01:13:50;4.88;;;4.38;;
21754;SDS011;11039;50.028;19.938;2022-08-07T01:16:16;5.95;;;4.15;;
21754;SDS011;11039;50.028;19.938;2022-08-07T01:18:42;5.53;;;4.05;;
21754;SDS011;11039;50.028;19.938;2022-08-07T01:21:09;4.88;;;4.43;;
21754;SDS011;11039;50.028;19.938;2022-08-07T01:23:36;6.88;;;5.18;;
21754;SDS011;11039;50.028;19.938;2022-08-07T01:26:02;5.18;;;4.55;;
21754;SDS011;11039;50.028;19.938;2022-08-07T01:28:28;6.68;;;4.55;;
21754;SDS011;11039;50.028;19.938;2022-08-07T01:30:55;5.45;;;4.85;;
21754;SDS011;11039;50.028;19.938;2022-08-07T01:33:21;5.68;;;4.97;;
21754;SDS011;11039;50.028;19.938;2022-08-07T01:35:48;5.28;;;4.78;;
21754;SDS011;11039;50.028;19.938;2022-08-07T01:38:14;6.00;;;4.82;;
21754;SDS011;11039;50.028;19.938;2022-08-07T01:40:40;8.07;;;5.15;;
21754;SDS011;11039;50.028;19.938;2022-08-07T01:43:08;5.60;;;5.03;;
21754;SDS011;11039;50.028;19.938;2022-08-07T01:45:34;6.25;;;5.28;;
21754;SDS011;11039;50.028;19.938;2022-08-07T01:48:00;5.47;;;4.97;;
21754;SDS011;11039;50.028;19.938;2022-08-07T01:50:27;6.35;;;4.93;;
21754;SDS011;11039;50.028;19.938;2022-08-07T01:52:55;6.97;;;5.25;;
21754;SDS011;11039;50.028;19.938;2022-08-07T01:55:28;6.35;;;5.00;;
21754;SDS011;11039;50.028;19.938;2022-08-07T01:57:56;7.88;;;5.38;;
21754;SDS011;11039;50.028;19.938;2022-08-07T02:00:23;8.02;;;5.38;;
21754;SDS011;11039;50.028;19.938;2022-08-07T02:02:55;7.03;;;4.85;;
21754;SDS011;11039;50.028;19.938;2022-08-07T02:05:33;5.38;;;4.88;;
21754;SDS011;11039;50.028;19.938;2022-08-07T02:08:02;6.30;;;4.65;;
21754;SDS011;11039;50.028;19.938;2022-08-07T02:10:28;5.70;;;5.10;;
21754;SDS011;11039;50.028;19.938;2022-08-07T02:12:56;7.32;;;4.82;;
21754;SDS011;11039;50.028;19.938;2022-08-07T02:15:23;7.32;;;4.95;;
21754;SDS011;11039;50.028;19.938;2022-08-07T02:17:51;5.88;;;5.07;;
21754;SDS011;11039;50.028;19.938;2022-08-07T02:20:18;6.55;;;4.65;;
21754;SDS011;11039;50.028;19.938;2022-08-07T02:22:45;6.10;;;4.63;;
21754;SDS011;11039;50.028;19.938;2022-08-07T02:25:12;5.95;;;4.25;;
21754;SDS011;11039;50.028;19.938;2022-08-07T02:27:39;5.65;;;4.30;;
21754;SDS011;11039;50.028;19.938;2022-08-07T02:30:06;4.90;;;3.83;;
21754;SDS011;11039;50.028;19.938;2022-08-07T02:32:33;5.32;;;3.95;;
21754;SDS011;11039;50.028;19.938;2022-08-07T02:35:01;6.40;;;3.97;;
21754;SDS011;11039;50.028;19.938;2022-08-07T02:37:28;4.57;;;3.63;;
21754;SDS011;11039;50.028;19.938;2022-08-07T02:39:55;4.47;;;3.63;;
21754;SDS011;11039;50.028;19.938;2022-08-07T02:42:22;3.90;;;3.38;;
21754;SDS011;11039;50.028;19.938;2022-08-07T02:44:49;4.63;;;3.70;;
21754;SDS011;11039;50.028;19.938;2022-08-07T02:47:15;4.03;;;3.20;;
21754;SDS011;11039;50.028;19.938;2022-08-07T02:49:42;4.22;;;3.17;;
21754;SDS011;11039;50.028;19.938;2022-08-07T02:52:09;4.05;;;2.97;;
21754;SDS011;11039;50.028;19.938;2022-08-07T02:54:36;3.90;;;2.97;;
21754;SDS011;11039;50.028;19.938;2022-08-07T02:57:05;3.42;;;2.90;;
21754;SDS011;11039;50.028;19.938;2022-08-07T02:59:33;4.00;;;3.30;;
21754;SDS011;11039;50.028;19.938;2022-08-07T03:01:59;3.35;;;2.80;;
21754;SDS011;11039;50.028;19.938;2022-08-07T03:04:27;4.53;;;2.90;;
21754;SDS011;11039;50.028;19.938;2022-08-07T03:06:53;4.70;;;3.03;;
21754;SDS011;11039;50.028;19.938;2022-08-07T03:09:19;4.88;;;3.08;;
21754;SDS011;11039;50.028;19.938;2022-08-07T03:11:45;4.85;;;2.90;;
21754;SDS011;11039;50.028;19.938;2022-08-07T03:14:12;3.42;;;2.83;;
21754;SDS011;11039;50.028;19.938;2022-08-07T03:16:38;4.28;;;3.03;;
21754;SDS011;11039;50.028;19.938;2022-08-07T03:19:05;4.45;;;3.13;;
21754;SDS011;11039;50.028;19.938;2022-08-07T03:21:31;4.45;;;3.20;;
21754;SDS011;11039;50.028;19.938;2022-08-07T03:23:57;3.42;;;2.70;;
21754;SDS011;11039;50.028;19.938;2022-08-07T03:26:24;3.95;;;2.78;;
21754;SDS011;11039;50.028;19.938;2022-08-07T03:28:50;5.07;;;2.97;;
21754;SDS011;11039;50.028;19.938;2022-08-07T03:31:18;4.22;;;3.00;;
21754;SDS011;11039;50.028;19.938;2022-08-07T03:33:49;4.65;;;3.17;;
21754;SDS011;11039;50.028;19.938;2022-08-07T03:36:16;4.40;;;2.70;;
21754;SDS011;11039;50.028;19.938;2022-08-07T03:38:43;3.83;;;3.30;;
21754;SDS011;11039;50.028;19.938;2022-08-07T03:41:10;5.28;;;3.17;;
21754;SDS011;11039;50.028;19.938;2022-08-07T03:43:36;3.75;;;2.80;;
21754;SDS011;11039;50.028;19.938;2022-08-07T03:46:03;4.35;;;2.70;;
21754;SDS011;11039;50.028;19.938;2022-08-07T03:48:30;4.88;;;3.13;;
21754;SDS011;11039;50.028;19.938;2022-08-07T03:50:56;4.63;;;3.00;;
21754;SDS011;11039;50.028;19.938;2022-08-07T03:53:23;4.53;;;2.88;;
21754;SDS011;11039;50.028;19.938;2022-08-07T03:55:49;3.47;;;3.10;;
21754;SDS011;11039;50.028;19.938;2022-08-07T03:58:16;4.13;;;3.20;;
21754;SDS011;11039;50.028;19.938;2022-08-07T04:00:42;5.25;;;3.35;;
21754;SDS011;11039;50.028;19.938;2022-08-07T04:03:09;3.47;;;2.63;;
21754;SDS011;11039;50.028;19.938;2022-08-07T04:05:36;4.32;;;2.97;;
21754;SDS011;11039;50.028;19.938;2022-08-07T04:08:02;6.35;;;3.30;;
21754;SDS011;11039;50.028;19.938;2022-08-07T04:10:29;3.85;;;3.15;;
21754;SDS011;11039;50.028;19.938;2022-08-07T04:12:55;5.25;;;3.47;;
21754;SDS011;11039;50.028;19.938;2022-08-07T04:15:21;4.28;;;3.30;;
21754;SDS011;11039;50.028;19.938;2022-08-07T04:17:47;4.65;;;3.40;;
21754;SDS011;11039;50.028;19.938;2022-08-07T04:20:13;4.88;;;3.38;;
21754;SDS011;11039;50.028;19.938;2022-08-07T04:22:39;4.90;;;3.60;;
21754;SDS011;11039;50.028;19.938;2022-08-07T04:25:06;3.25;;;2.95;;
21754;SDS011;11039;50.028;19.938;2022-08-07T04:27:33;4.90;;;3.35;;
21754;SDS011;11039;50.028;19.938;2022-08-07T04:29:59;4.30;;;3.10;;
21754;SDS011;11039;50.028;19.938;2022-08-07T04:32:25;4.47;;;3.28;;
21754;SDS011;11039;50.028;19.938;2022-08-07T04:34:51;3.97;;;3.08;;
21754;SDS011;11039;50.028;19.938;2022-08-07T04:37:18;3.90;;;2.90;;
21754;SDS011;11039;50.028;19.938;2022-08-07T04:39:44;4.15;;;3.05;;
21754;SDS011;11039;50.028;19.938;2022-08-07T04:42:11;3.30;;;3.00;;
21754;SDS011;11039;50.028;19.938;2022-08-07T04:44:37;3.85;;;2.72;;
21754;SDS011;11039;50.028;19.938;2022-08-07T04:47:08;3.28;;;2.60;;
21754;SDS011;11039;50.028;19.938;2022-08-07T04:52:02;2.90;;;2.60;;
21754;SDS011;11039;50.028;19.938;2022-08-07T04:57:21;2.90;;;2.47;;
21754;SDS011;11039;50.028;19.938;2022-08-07T04:59:57;3.20;;;2.75;;
21754;SDS011;11039;50.028;19.938;2022-08-07T05:02:31;3.83;;;2.63;;
21754;SDS011;11039;50.028;19.938;2022-08-07T05:07:46;4.93;;;2.50;;
21754;SDS011;11039;50.028;19.938;2022-08-07T05:12:57;4.47;;;3.00;;
21754;SDS011;11039;50.028;19.938;2022-08-07T05:15:24;4.65;;;2.60;;
21754;SDS011;11039;50.028;19.938;2022-08-07T05:17:55;2.88;;;2.28;;
21754;SDS011;11039;50.028;19.938;2022-08-07T05:20:26;4.22;;;2.67;;
21754;SDS011;11039;50.028;19.938;2022-08-07T05:22:57;3.42;;;2.38;;
21754;SDS011;11039;50.028;19.938;2022-08-07T05:25:24;4.28;;;2.60;;
21754;SDS011;11039;50.028;19.938;2022-08-07T05:27:52;3.95;;;2.75;;
21754;SDS011;11039;50.028;19.938;2022-08-07T05:30:19;5.32;;;2.58;;
21754;SDS011;11039;50.028;19.938;2022-08-07T05:32:45;5.05;;;2.58;;
21754;SDS011;11039;50.028;19.938;2022-08-07T05:35:12;3.10;;;2.45;;
21754;SDS011;11039;50.028;19.938;2022-08-07T05:37:39;3.00;;;2.58;;
21754;SDS011;11039;50.028;19.938;2022-08-07T05:40:06;4.07;;;2.55;;
21754;SDS011;11039;50.028;19.938;2022-08-07T05:42:33;3.15;;;2.50;;
21754;SDS011;11039;50.028;19.938;2022-08-07T05:45:00;3.75;;;2.38;;
21754;SDS011;11039;50.028;19.938;2022-08-07T05:47:26;3.47;;;2.33;;
21754;SDS011;11039;50.028;19.938;2022-08-07T05:49:52;3.53;;;2.50;;
21754;SDS011;11039;50.028;19.938;2022-08-07T05:52:19;5.20;;;2.67;;
21754;SDS011;11039;50.028;19.938;2022-08-07T05:54:45;3.75;;;2.75;;
21754;SDS011;11039;50.028;19.938;2022-08-07T05:57:12;3.05;;;2.38;;
21754;SDS011;11039;50.028;19.938;2022-08-07T05:59:39;3.83;;;2.55;;
21754;SDS011;11039;50.028;19.938;2022-08-07T06:02:07;2.97;;;2.47;;
21754;SDS011;11039;50.028;19.938;2022-08-07T06:04:35;3.65;;;2.35;;
21754;SDS011;11039;50.028;19.938;2022-08-07T06:07:02;3.72;;;2.40;;
21754;SDS011;11039;50.028;19.938;2022-08-07T06:09:30;2.78;;;2.10;;
21754;SDS011;11039;50.028;19.938;2022-08-07T06:11:57;3.85;;;2.25;;
21754;SDS011;11039;50.028;19.938;2022-08-07T06:14:23;2.90;;;2.05;;
21754;SDS011;11039;50.028;19.938;2022-08-07T06:16:50;2.42;;;2.15;;
21754;SDS011;11039;50.028;19.938;2022-08-07T06:19:16;5.30;;;2.28;;
21754;SDS011;11039;50.028;19.938;2022-08-07T06:21:42;3.33;;;2.40;;
21754;SDS011;11039;50.028;19.938;2022-08-07T06:24:09;2.75;;;2.00;;
21754;SDS011;11039;50.028;19.938;2022-08-07T06:26:37;2.22;;;2.03;;
21754;SDS011;11039;50.028;19.938;2022-08-07T06:29:03;3.17;;;2.65;;
21754;SDS011;11039;50.028;19.938;2022-08-07T06:31:29;4.45;;;2.22;;
21754;SDS011;11039;50.028;19.938;2022-08-07T06:33:55;4.63;;;2.40;;
21754;SDS011;11039;50.028;19.938;2022-08-07T06:36:21;3.50;;;2.28;;
21754;SDS011;11039;50.028;19.938;2022-08-07T06:38:51;3.17;;;2.28;;
21754;SDS011;11039;50.028;19.938;2022-08-07T06:44:02;5.18;;;2.35;;
21754;SDS011;11039;50.028;19.938;2022-08-07T06:46:28;3.28;;;2.20;;
21754;SDS011;11039;50.028;19.938;2022-08-07T06:48:54;3.42;;;2.35;;
21754;SDS011;11039;50.028;19.938;2022-08-07T06:51:21;3.10;;;2.28;;
21754;SDS011;11039;50.028;19.938;2022-08-07T06:53:48;3.63;;;2.22;;
21754;SDS011;11039;50.028;19.938;2022-08-07T06:56:15;4.97;;;2.42;;
21754;SDS011;11039;50.028;19.938;2022-08-07T06:59:02;2.80;;;2.28;;
21754;SDS011;11039;50.028;19.938;2022-08-07T07:01:28;2.80;;;1.90;;
21754;SDS011;11039;50.028;19.938;2022-08-07T07:03:54;4.20;;;2.10;;
21754;SDS011;11039;50.028;19.938;2022-08-07T07:06:21;3.40;;;1.90;;
21754;SDS011;11039;50.028;19.938;2022-08-07T07:08:47;2.90;;;1.90;;
21754;SDS011;11039;50.028;19.938;2022-08-07T07:11:13;2.80;;;1.70;;
21754;SDS011;11039;50.028;19.938;2022-08-07T07:13:40;3.13;;;2.20;;
21754;SDS011;11039;50.028;19.938;2022-08-07T07:16:07;2.38;;;1.80;;
21754;SDS011;11039;50.028;19.938;2022-08-07T07:18:54;2.88;;;1.90;;
21754;SDS011;11039;50.028;19.938;2022-08-07T07:21:25;3.70;;;1.90;;
21754;SDS011;11039;50.028;19.938;2022-08-07T07:23:52;3.85;;;1.95;;
21754;SDS011;11039;50.028;19.938;2022-08-07T07:26:19;2.67;;;1.90;;
21754;SDS011;11039;50.028;19.938;2022-08-07T07:28:55;3.38;;;2.03;;
21754;SDS011;11039;50.028;19.938;2022-08-07T07:31:23;6.05;;;2.42;;
21754;SDS011;11039;50.028;19.938;2022-08-07T07:33:52;4.40;;;2.05;;
21754;SDS011;11039;50.028;19.938;2022-08-07T07:36:19;2.75;;;2.00;;
21754;SDS011;11039;50.028;19.938;2022-08-07T07:38:47;5.40;;;2.17;;
21754;SDS011;11039;50.028;19.938;2022-08-07T07:41:13;4.00;;;2.03;;
21754;SDS011;11039;50.028;19.938;2022-08-07T07:43:41;4.95;;;2.08;;
21754;SDS011;11039;50.028;19.938;2022-08-07T07:46:08;5.22;;;2.63;;
21754;SDS011;11039;50.028;19.938;2022-08-07T07:48:34;3.42;;;2.35;;
21754;SDS011;11039;50.028;19.938;2022-08-07T07:51:01;5.40;;;2.55;;
21754;SDS011;11039;50.028;19.938;2022-08-07T07:53:27;4.72;;;2.42;;
21754;SDS011;11039;50.028;19.938;2022-08-07T07:55:55;7.53;;;2.97;;
21754;SDS011;11039;50.028;19.938;2022-08-07T07:58:24;5.07;;;2.33;;
21754;SDS011;11039;50.028;19.938;2022-08-07T08:00:51;5.60;;;2.60;;
21754;SDS011;11039;50.028;19.938;2022-08-07T08:03:18;5.85;;;2.55;;
21754;SDS011;11039;50.028;19.938;2022-08-07T08:05:45;4.88;;;2.15;;
21754;SDS011;11039;50.028;19.938;2022-08-07T08:08:12;4.65;;;2.30;;
21754;SDS011;11039;50.028;19.938;2022-08-07T08:10:39;4.68;;;2.20;;
21754;SDS011;11039;50.028;19.938;2022-08-07T08:13:06;6.10;;;2.30;;
21754;SDS011;11039;50.028;19.938;2022-08-07T08:15:34;4.78;;;2.17;;
21754;SDS011;11039;50.028;19.938;2022-08-07T08:18:01;2.35;;;1.80;;
21754;SDS011;11039;50.028;19.938;2022-08-07T08:20:29;5.25;;;2.03;;
21754;SDS011;11039;50.028;19.938;2022-08-07T08:22:55;3.58;;;1.90;;
21754;SDS011;11039;50.028;19.938;2022-08-07T08:25:41;3.47;;;1.70;;
21754;SDS011;11039;50.028;19.938;2022-08-07T08:28:27;2.50;;;1.63;;
21754;SDS011;11039;50.028;19.938;2022-08-07T08:30:56;2.97;;;1.70;;
21754;SDS011;11039;50.028;19.938;2022-08-07T08:33:23;3.40;;;1.75;;
21754;SDS011;11039;50.028;19.938;2022-08-07T08:35:51;3.28;;;1.85;;
21754;SDS011;11039;50.028;19.938;2022-08-07T08:38:21;2.80;;;1.73;;
21754;SDS011;11039;50.028;19.938;2022-08-07T08:40:51;3.53;;;2.05;;
21754;SDS011;11039;50.028;19.938;2022-08-07T08:43:20;3.50;;;1.80;;
21754;SDS011;11039;50.028;19.938;2022-08-07T08:45:51;3.20;;;1.92;;
21754;SDS011;11039;50.028;19.938;2022-08-07T08:48:24;2.47;;;1.67;;
21754;SDS011;11039;50.028;19.938;2022-08-07T08:53:23;4.18;;;1.80;;
21754;SDS011;11039;50.028;19.938;2022-08-07T08:55:52;2.22;;;1.60;;
21754;SDS011;11039;50.028;19.938;2022-08-07T08:58:31;2.65;;;1.60;;
21754;SDS011;11039;50.028;19.938;2022-08-07T09:01:10;2.55;;;1.58;;
21754;SDS011;11039;50.028;19.938;2022-08-07T09:03:49;3.35;;;1.90;;
21754;SDS011;11039;50.028;19.938;2022-08-07T09:09:05;2.10;;;1.38;;
21754;SDS011;11039;50.028;19.938;2022-08-07T09:11:37;1.75;;;1.30;;
21754;SDS011;11039;50.028;19.938;2022-08-07T09:14:16;2.63;;;1.63;;
21754;SDS011;11039;50.028;19.938;2022-08-07T09:16:49;2.45;;;1.33;;
21754;SDS011;11039;50.028;19.938;2022-08-07T09:21:51;5.88;;;1.55;;
21754;SDS011;11039;50.028;19.938;2022-08-07T09:32:21;1.92;;;1.40;;
21754;SDS011;11039;50.028;19.938;2022-08-07T09:37:24;2.53;;;1.38;;
21754;SDS011;11039;50.028;19.938;2022-08-07T09:42:49;3.17;;;1.48;;
21754;SDS011;11039;50.028;19.938;2022-08-07T09:45:19;4.45;;;1.50;;
21754;SDS011;11039;50.028;19.938;2022-08-07T09:53:15;1.98;;;1.67;;
21754;SDS011;11039;50.028;19.938;2022-08-07T09:58:16;1.77;;;1.20;;
21754;SDS011;11039;50.028;19.938;2022-08-07T10:14:12;2.17;;;1.38;;
21754;SDS011;11039;50.028;19.938;2022-08-07T10:32:18;2.17;;;1.48;;
21754;SDS011;11039;50.028;19.938;2022-08-07T10:40:28;2.50;;;1.60;;
21754;SDS011;11039;50.028;19.938;2022-08-07T10:43:38;2.55;;;1.00;;
21754;SDS011;11039;50.028;19.938;2022-08-07T10:45:48;1.80;;;0.93;;
21754;SDS011;11039;50.028;19.938;2022-08-07T10:50:53;2.17;;;1.20;;
21754;SDS011;11039;50.028;19.938;2022-08-07T10:55:48;11.27;;;6.88;;
21754;SDS011;11039;50.028;19.938;2022-08-07T11:01:08;7.03;;;5.20;;
21754;SDS011;11039;50.028;19.938;2022-08-07T11:03:44;4.25;;;3.63;;
21754;SDS011;11039;50.028;19.938;2022-08-07T11:06:35;3.50;;;3.20;;
21754;SDS011;11039;50.028;19.938;2022-08-07T11:09:09;3.33;;;2.25;;
21754;SDS011;11039;50.028;19.938;2022-08-07T11:11:42;2.72;;;2.17;;
21754;SDS011;11039;50.028;19.938;2022-08-07T11:14:11;3.47;;;2.10;;
21754;SDS011;11039;50.028;19.938;2022-08-07T11:16:55;2.72;;;1.70;;
21754;SDS011;11039;50.028;19.938;2022-08-07T11:24:48;2.47;;;1.30;;
21754;SDS011;11039;50.028;19.938;2022-08-07T11:29:50;2.25;;;1.30;;
21754;SDS011;11039;50.028;19.938;2022-08-07T11:32:19;3.22;;;1.67;;
21754;SDS011;11039;50.028;19.938;2022-08-07T11:34:49;4.72;;;1.48;;
21754;SDS011;11039;50.028;19.938;2022-08-07T11:45:05;2.95;;;1.20;;
21754;SDS011;11039;50.028;19.938;2022-08-07T11:50:20;3.25;;;1.20;;
21754;SDS011;11039;50.028;19.938;2022-08-07T11:58:13;3.55;;;1.40;;
21754;SDS011;11039;50.028;19.938;2022-08-07T12:06:24;1.90;;;1.10;;
21754;SDS011;11039;50.028;19.938;2022-08-07T12:09:01;2.38;;;1.15;;
21754;SDS011;11039;50.028;19.938;2022-08-07T12:11:52;2.67;;;1.17;;
21754;SDS011;11039;50.028;19.938;2022-08-07T12:14:20;2.17;;;1.20;;
21754;SDS011;11039;50.028;19.938;2022-08-07T12:16:57;3.15;;;1.10;;
21754;SDS011;11039;50.028;19.938;2022-08-07T12:19:42;2.10;;;1.02;;
21754;SDS011;11039;50.028;19.938;2022-08-07T12:27:41;2.25;;;1.10;;
21754;SDS011;11039;50.028;19.938;2022-08-07T12:30:09;1.92;;;0.77;;
21754;SDS011;11039;50.028;19.938;2022-08-07T12:35:02;3.38;;;1.13;;
21754;SDS011;11039;50.028;19.938;2022-08-07T12:37:29;3.28;;;1.30;;
21754;SDS011;11039;50.028;19.938;2022-08-07T12:39:56;3.40;;;1.27;;
21754;SDS011;11039;50.028;19.938;2022-08-07T12:42:23;2.35;;;1.30;;
21754;SDS011;11039;50.028;19.938;2022-08-07T12:44:50;1.92;;;1.10;;
21754;SDS011;11039;50.028;19.938;2022-08-07T12:49:48;2.88;;;1.10;;
21754;SDS011;11039;50.028;19.938;2022-08-07T12:52:24;2.60;;;1.13;;
21754;SDS011;11039;50.028;19.938;2022-08-07T12:55:08;2.08;;;1.23;;
21754;SDS011;11039;50.028;19.938;2022-08-07T12:57:39;2.17;;;1.20;;
21754;SDS011;11039;50.028;19.938;2022-08-07T13:00:05;3.08;;;1.25;;
21754;SDS011;11039;50.028;19.938;2022-08-07T13:02:50;2.10;;;0.95;;
21754;SDS011;11039;50.028;19.938;2022-08-07T13:07:57;2.75;;;1.27;;
21754;SDS011;11039;50.028;19.938;2022-08-07T13:13:28;1.98;;;1.05;;
21754;SDS011;11039;50.028;19.938;2022-08-07T13:16:11;1.60;;;1.08;;
21754;SDS011;11039;50.028;19.938;2022-08-07T13:18:44;1.45;;;0.80;;
21754;SDS011;11039;50.028;19.938;2022-08-07T13:21:13;2.17;;;1.00;;
21754;SDS011;11039;50.028;19.938;2022-08-07T13:24:43;2.20;;;1.30;;
21754;SDS011;11039;50.028;19.938;2022-08-07T13:26:41;2.15;;;1.00;;
21754;SDS011;11039;50.028;19.938;2022-08-07T13:29:13;2.75;;;0.88;;
21754;SDS011;11039;50.028;19.938;2022-08-07T13:31:54;1.42;;;0.80;;
21754;SDS011;11039;50.028;19.938;2022-08-07T13:37:24;2.28;;;0.90;;
21754;SDS011;11039;50.028;19.938;2022-08-07T13:42:29;3.13;;;1.10;;
21754;SDS011;11039;50.028;19.938;2022-08-07T13:44:56;1.42;;;0.80;;
21754;SDS011;11039;50.028;19.938;2022-08-07T13:47:25;3.65;;;0.95;;
21754;SDS011;11039;50.028;19.938;2022-08-07T13:49:52;1.52;;;0.90;;
21754;SDS011;11039;50.028;19.938;2022-08-07T13:52:19;1.67;;;1.00;;
21754;SDS011;11039;50.028;19.938;2022-08-07T13:54:45;1.60;;;1.00;;
21754;SDS011;11039;50.028;19.938;2022-08-07T13:57:12;2.53;;;0.80;;
21754;SDS011;11039;50.028;19.938;2022-08-07T13:59:41;2.35;;;1.05;;
21754;SDS011;11039;50.028;19.938;2022-08-07T14:02:09;2.17;;;0.90;;
21754;SDS011;11039;50.028;19.938;2022-08-07T14:07:10;1.63;;;1.20;;
21754;SDS011;11039;50.028;19.938;2022-08-07T14:09:37;1.70;;;0.80;;
21754;SDS011;11039;50.028;19.938;2022-08-07T14:12:04;1.73;;;0.70;;
21754;SDS011;11039;50.028;19.938;2022-08-07T14:14:42;2.65;;;1.00;;
21754;SDS011;11039;50.028;19.938;2022-08-07T14:17:10;2.03;;;1.00;;
21754;SDS011;11039;50.028;19.938;2022-08-07T14:19:47;3.33;;;0.93;;
21754;SDS011;11039;50.028;19.938;2022-08-07T14:22:18;2.20;;;0.90;;
21754;SDS011;11039;50.028;19.938;2022-08-07T14:24:47;3.53;;;0.90;;
21754;SDS011;11039;50.028;19.938;2022-08-07T14:27:14;3.95;;;0.80;;
21754;SDS011;11039;50.028;19.938;2022-08-07T14:29:46;1.73;;;0.82;;
21754;SDS011;11039;50.028;19.938;2022-08-07T14:32:13;3.33;;;0.93;;
21754;SDS011;11039;50.028;19.938;2022-08-07T14:34:42;1.20;;;0.80;;
21754;SDS011;11039;50.028;19.938;2022-08-07T14:37:09;2.95;;;0.93;;
21754;SDS011;11039;50.028;19.938;2022-08-07T14:39:40;1.90;;;0.90;;
21754;SDS011;11039;50.028;19.938;2022-08-07T14:42:07;2.03;;;0.88;;
21754;SDS011;11039;50.028;19.938;2022-08-07T14:44:34;1.02;;;0.80;;
21754;SDS011;11039;50.028;19.938;2022-08-07T14:47:02;2.03;;;1.20;;
21754;SDS011;11039;50.028;19.938;2022-08-07T14:49:30;2.22;;;0.80;;
21754;SDS011;11039;50.028;19.938;2022-08-07T14:51:57;1.23;;;0.77;;
21754;SDS011;11039;50.028;19.938;2022-08-07T14:54:27;2.63;;;0.93;;
21754;SDS011;11039;50.028;19.938;2022-08-07T14:56:53;1.75;;;0.75;;
21754;SDS011;11039;50.028;19.938;2022-08-07T14:59:21;2.25;;;0.85;;
21754;SDS011;11039;50.028;19.938;2022-08-07T15:01:47;1.50;;;0.90;;
21754;SDS011;11039;50.028;19.938;2022-08-07T15:04:13;2.50;;;1.20;;
21754;SDS011;11039;50.028;19.938;2022-08-07T15:06:41;1.58;;;1.20;;
21754;SDS011;11039;50.028;19.938;2022-08-07T15:09:10;1.95;;;0.90;;
21754;SDS011;11039;50.028;19.938;2022-08-07T15:11:42;2.03;;;0.82;;
21754;SDS011;11039;50.028;19.938;2022-08-07T15:14:10;2.45;;;1.00;;
21754;SDS011;11039;50.028;19.938;2022-08-07T15:16:45;1.10;;;0.88;;
21754;SDS011;11039;50.028;19.938;2022-08-07T15:19:13;1.17;;;0.80;;
21754;SDS011;11039;50.028;19.938;2022-08-07T15:21:44;1.70;;;0.80;;
21754;SDS011;11039;50.028;19.938;2022-08-07T15:24:13;2.45;;;0.77;;
21754;SDS011;11039;50.028;19.938;2022-08-07T15:26:42;2.60;;;1.02;;
21754;SDS011;11039;50.028;19.938;2022-08-07T15:29:09;1.42;;;0.98;;
21754;SDS011;11039;50.028;19.938;2022-08-07T15:31:37;1.63;;;0.90;;
21754;SDS011;11039;50.028;19.938;2022-08-07T15:34:04;1.67;;;0.80;;
21754;SDS011;11039;50.028;19.938;2022-08-07T15:36:32;1.05;;;0.70;;
21754;SDS011;11039;50.028;19.938;2022-08-07T15:39:03;1.60;;;0.70;;
21754;SDS011;11039;50.028;19.938;2022-08-07T15:41:30;0.95;;;0.80;;
21754;SDS011;11039;50.028;19.938;2022-08-07T15:44:03;1.50;;;0.93;;
21754;SDS011;11039;50.028;19.938;2022-08-07T15:46:31;2.08;;;0.60;;
21754;SDS011;11039;50.028;19.938;2022-08-07T15:48:59;2.00;;;0.80;;
21754;SDS011;11039;50.028;19.938;2022-08-07T15:51:25;0.80;;;0.50;;
21754;SDS011;11039;50.028;19.938;2022-08-07T15:53:55;1.20;;;0.80;;
21754;SDS011;11039;50.028;19.938;2022-08-07T15:56:32;1.70;;;0.82;;
21754;SDS011;11039;50.028;19.938;2022-08-07T15:59:00;3.45;;;0.90;;
21754;SDS011;11039;50.028;19.938;2022-08-07T16:01:29;1.27;;;0.75;;
21754;SDS011;11039;50.028;19.938;2022-08-07T16:03:58;2.60;;;0.98;;
21754;SDS011;11039;50.028;19.938;2022-08-07T16:08:58;1.73;;;0.88;;
21754;SDS011;11039;50.028;19.938;2022-08-07T16:19:34;1.73;;;0.95;;
21754;SDS011;11039;50.028;19.938;2022-08-07T16:22:05;0.88;;;0.65;;
21754;SDS011;11039;50.028;19.938;2022-08-07T16:24:37;1.15;;;0.80;;
21754;SDS011;11039;50.028;19.938;2022-08-07T16:27:08;2.08;;;0.70;;
21754;SDS011;11039;50.028;19.938;2022-08-07T16:32:07;2.35;;;0.57;;
21754;SDS011;11039;50.028;19.938;2022-08-07T17:09:07;1.40;;;0.70;;
21754;SDS011;11039;50.028;19.938;2022-08-07T17:14:45;1.55;;;1.00;;
21754;SDS011;11039;50.028;19.938;2022-08-07T17:17:13;1.55;;;0.80;;
21754;SDS011;11039;50.028;19.938;2022-08-07T17:19:46;1.38;;;0.70;;
21754;SDS011;11039;50.028;19.938;2022-08-07T17:22:21;1.58;;;0.90;;
21754;SDS011;11039;50.028;19.938;2022-08-07T17:25:02;1.25;;;0.73;;
21754;SDS011;11039;50.028;19.938;2022-08-07T17:32:50;1.88;;;1.15;;
21754;SDS011;11039;50.028;19.938;2022-08-07T17:35:19;2.45;;;0.88;;
21754;SDS011;11039;50.028;19.938;2022-08-07T17:40:18;1.48;;;0.85;;
21754;SDS011;11039;50.028;19.938;2022-08-07T17:45:19;2.10;;;0.82;;
21754;SDS011;11039;50.028;19.938;2022-08-07T17:50:41;1.92;;;0.80;;
21754;SDS011;11039;50.028;19.938;2022-08-07T17:53:06;2.90;;;0.80;;
21754;SDS011;11039;50.028;19.938;2022-08-07T17:55:52;2.03;;;0.90;;
21754;SDS011;11039;50.028;19.938;2022-08-07T17:58:22;2.25;;;0.85;;
21754;SDS011;11039;50.028;19.938;2022-08-07T18:00:50;1.10;;;0.55;;
21754;SDS011;11039;50.028;19.938;2022-08-07T18:03:19;1.67;;;0.70;;
21754;SDS011;11039;50.028;19.938;2022-08-07T18:05:50;1.25;;;0.70;;